sensor_id;sensor_type;location;lat;lon;timestamp;temperature;humidity
41116;DHT22;26861;51.824;4.682;2023-03-07T00:00:39;14.30;53.00
41116;DHT22;26861;51.824;4.682;2023-03-07T00:03:06;14.30;52.90
41116;DHT22;26861;51.824;4.682;2023-03-07T00:05:32;14.30;52.90
41116;DHT22;26861;51.824;4.682;2023-03-07T00:07:58;14.30;53.00
41116;DHT22;26861;51.824;4.682;2023-03-07T00:10:24;14.30;53.00
41116;DHT22;26861;51.824;4.682;2023-03-07T00:12:51;14.30;52.90
41116;DHT22;26861;51.824;4.682;2023-03-07T00:15:17;14.30;52.90
41116;DHT22;26861;51.824;4.682;2023-03-07T00:17:43;14.30;53.00
41116;DHT22;26861;51.824;4.682;2023-03-07T00:20:10;14.30;53.10
41116;DHT22;26861;51.824;4.682;2023-03-07T00:22:38;14.30;53.00
41116;DHT22;26861;51.824;4.682;2023-03-07T00:25:04;14.30;53.00
41116;DHT22;26861;51.824;4.682;2023-03-07T00:27:31;14.40;53.00
41116;DHT22;26861;51.824;4.682;2023-03-07T00:29:59;14.30;53.00
41116;DHT22;26861;51.824;4.682;2023-03-07T00:32:26;14.20;53.00
41116;DHT22;26861;51.824;4.682;2023-03-07T00:34:53;14.30;53.00
41116;DHT22;26861;51.824;4.682;2023-03-07T00:37:19;14.30;53.70
41116;DHT22;26861;51.824;4.682;2023-03-07T00:39:45;14.30;53.10
41116;DHT22;26861;51.824;4.682;2023-03-07T00:42:11;14.20;53.00
41116;DHT22;26861;51.824;4.682;2023-03-07T00:44:37;14.30;53.00
41116;DHT22;26861;51.824;4.682;2023-03-07T00:47:04;14.20;53.10
41116;DHT22;26861;51.824;4.682;2023-03-07T00:49:30;14.20;53.00
41116;DHT22;26861;51.824;4.682;2023-03-07T00:51:56;14.20;53.00
41116;DHT22;26861;51.824;4.682;2023-03-07T00:54:22;14.20;53.00
41116;DHT22;26861;51.824;4.682;2023-03-07T00:56:48;14.20;53.00
41116;DHT22;26861;51.824;4.682;2023-03-07T00:59:14;14.20;53.10
41116;DHT22;26861;51.824;4.682;2023-03-07T01:01:40;14.20;53.80
41116;DHT22;26861;51.824;4.682;2023-03-07T01:04:07;14.20;53.30
41116;DHT22;26861;51.824;4.682;2023-03-07T01:06:34;14.20;53.10
41116;DHT22;26861;51.824;4.682;2023-03-07T01:09:03;14.20;53.20
41116;DHT22;26861;51.824;4.682;2023-03-07T01:11:30;14.10;53.10
41116;DHT22;26861;51.824;4.682;2023-03-07T01:13:58;14.20;53.30
41116;DHT22;26861;51.824;4.682;2023-03-07T01:16:29;14.10;53.20
41116;DHT22;26861;51.824;4.682;2023-03-07T01:18:58;14.10;53.20
41116;DHT22;26861;51.824;4.682;2023-03-07T01:21:25;14.10;53.10
41116;DHT22;26861;51.824;4.682;2023-03-07T01:23:52;14.10;53.20
41116;DHT22;26861;51.824;4.682;2023-03-07T01:26:26;14.10;53.20
41116;DHT22;26861;51.824;4.682;2023-03-07T01:28:56;14.10;53.20
41116;DHT22;26861;51.824;4.682;2023-03-07T01:31:22;14.10;53.20
41116;DHT22;26861;51.824;4.682;2023-03-07T01:33:49;14.10;53.20
41116;DHT22;26861;51.824;4.682;2023-03-07T01:36:17;14.10;52.70
41116;DHT22;26861;51.824;4.682;2023-03-07T01:38:46;14.00;53.10
41116;DHT22;26861;51.824;4.682;2023-03-07T01:41:12;14.10;53.90
41116;DHT22;26861;51.824;4.682;2023-03-07T01:43:38;14.10;53.30
41116;DHT22;26861;51.824;4.682;2023-03-07T01:48:47;14.10;53.30
41116;DHT22;26861;51.824;4.682;2023-03-07T01:51:15;14.10;53.30
41116;DHT22;26861;51.824;4.682;2023-03-07T01:53:41;14.10;53.40
41116;DHT22;26861;51.824;4.682;2023-03-07T01:56:07;14.10;53.40
41116;DHT22;26861;51.824;4.682;2023-03-07T01:58:35;14.10;53.90
41116;DHT22;26861;51.824;4.682;2023-03-07T02:01:06;14.10;53.40
41116;DHT22;26861;51.824;4.682;2023-03-07T02:03:50;14.10;53.30
41116;DHT22;26861;51.824;4.682;2023-03-07T02:06:17;14.10;53.90
41116;DHT22;26861;51.824;4.682;2023-03-07T02:08:45;14.00;53.30
41116;DHT22;26861;51.824;4.682;2023-03-07T02:11:13;14.00;53.40
41116;DHT22;26861;51.824;4.682;2023-03-07T02:13:40;14.00;53.30
41116;DHT22;26861;51.824;4.682;2023-03-07T02:16:07;14.00;53.30
41116;DHT22;26861;51.824;4.682;2023-03-07T02:18:37;14.00;53.40
41116;DHT22;26861;51.824;4.682;2023-03-07T02:23:55;14.00;53.40
41116;DHT22;26861;51.824;4.682;2023-03-07T02:28:54;14.00;53.30
41116;DHT22;26861;51.824;4.682;2023-03-07T02:31:21;14.00;53.40
41116;DHT22;26861;51.824;4.682;2023-03-07T02:33:47;14.00;53.40
41116;DHT22;26861;51.824;4.682;2023-03-07T02:36:27;14.00;53.40
41116;DHT22;26861;51.824;4.682;2023-03-07T02:38:56;14.00;53.40
41116;DHT22;26861;51.824;4.682;2023-03-07T02:41:28;13.90;53.30
41116;DHT22;26861;51.824;4.682;2023-03-07T02:43:56;13.90;53.30
41116;DHT22;26861;51.824;4.682;2023-03-07T02:46:22;13.90;53.20
41116;DHT22;26861;51.824;4.682;2023-03-07T02:48:48;13.90;53.30
41116;DHT22;26861;51.824;4.682;2023-03-07T02:51:14;13.90;53.20
41116;DHT22;26861;51.824;4.682;2023-03-07T02:53:40;13.90;53.20
41116;DHT22;26861;51.824;4.682;2023-03-07T02:56:07;13.90;53.30
41116;DHT22;26861;51.824;4.682;2023-03-07T02:58:33;13.90;53.30
41116;DHT22;26861;51.824;4.682;2023-03-07T03:00:58;13.90;53.30
41116;DHT22;26861;51.824;4.682;2023-03-07T03:03:25;13.90;53.30
41116;DHT22;26861;51.824;4.682;2023-03-07T03:05:51;13.90;53.30
41116;DHT22;26861;51.824;4.682;2023-03-07T03:08:17;13.90;53.40
41116;DHT22;26861;51.824;4.682;2023-03-07T03:10:43;13.90;53.30
41116;DHT22;26861;51.824;4.682;2023-03-07T03:13:08;13.90;54.00
41116;DHT22;26861;51.824;4.682;2023-03-07T03:15:34;13.90;54.00
41116;DHT22;26861;51.824;4.682;2023-03-07T03:17:59;13.80;53.20
41116;DHT22;26861;51.824;4.682;2023-03-07T03:20:25;13.90;53.40
41116;DHT22;26861;51.824;4.682;2023-03-07T03:22:52;13.90;53.30
41116;DHT22;26861;51.824;4.682;2023-03-07T03:25:18;13.80;53.30
41116;DHT22;26861;51.824;4.682;2023-03-07T03:27:46;13.80;53.30
41116;DHT22;26861;51.824;4.682;2023-03-07T03:30:13;13.80;53.30
41116;DHT22;26861;51.824;4.682;2023-03-07T03:32:39;13.90;53.30
41116;DHT22;26861;51.824;4.682;2023-03-07T03:35:06;13.80;53.30
41116;DHT22;26861;51.824;4.682;2023-03-07T03:37:33;13.80;53.30
41116;DHT22;26861;51.824;4.682;2023-03-07T03:39:59;13.90;53.40
41116;DHT22;26861;51.824;4.682;2023-03-07T03:42:25;13.80;53.30
41116;DHT22;26861;51.824;4.682;2023-03-07T03:44:51;13.80;53.30
41116;DHT22;26861;51.824;4.682;2023-03-07T03:47:17;13.90;53.30
41116;DHT22;26861;51.824;4.682;2023-03-07T03:49:43;13.80;53.30
41116;DHT22;26861;51.824;4.682;2023-03-07T03:52:09;13.80;53.40
41116;DHT22;26861;51.824;4.682;2023-03-07T03:54:35;13.80;53.40
41116;DHT22;26861;51.824;4.682;2023-03-07T03:57:01;13.80;53.40
41116;DHT22;26861;51.824;4.682;2023-03-07T03:59:28;13.80;53.30
41116;DHT22;26861;51.824;4.682;2023-03-07T04:01:54;13.80;53.30
41116;DHT22;26861;51.824;4.682;2023-03-07T04:04:21;13.80;53.30
41116;DHT22;26861;51.824;4.682;2023-03-07T04:06:47;13.80;53.30
41116;DHT22;26861;51.824;4.682;2023-03-07T04:09:13;13.80;53.30
41116;DHT22;26861;51.824;4.682;2023-03-07T04:11:40;13.80;53.30
41116;DHT22;26861;51.824;4.682;2023-03-07T04:14:06;13.80;53.40
41116;DHT22;26861;51.824;4.682;2023-03-07T04:16:32;13.80;53.30
41116;DHT22;26861;51.824;4.682;2023-03-07T04:18:58;13.80;53.30
41116;DHT22;26861;51.824;4.682;2023-03-07T04:21:24;13.80;53.30
41116;DHT22;26861;51.824;4.682;2023-03-07T04:23:50;13.80;53.30
41116;DHT22;26861;51.824;4.682;2023-03-07T04:26:20;13.70;53.30
41116;DHT22;26861;51.824;4.682;2023-03-07T04:28:47;13.70;53.30
41116;DHT22;26861;51.824;4.682;2023-03-07T04:31:18;13.80;53.30
41116;DHT22;26861;51.824;4.682;2023-03-07T04:33:44;13.80;53.40
41116;DHT22;26861;51.824;4.682;2023-03-07T04:36:11;13.80;53.40
41116;DHT22;26861;51.824;4.682;2023-03-07T04:38:37;13.70;53.40
41116;DHT22;26861;51.824;4.682;2023-03-07T04:41:06;13.70;53.40
41116;DHT22;26861;51.824;4.682;2023-03-07T04:43:32;13.80;54.10
41116;DHT22;26861;51.824;4.682;2023-03-07T04:45:59;13.80;54.10
41116;DHT22;26861;51.824;4.682;2023-03-07T04:48:25;13.80;53.50
41116;DHT22;26861;51.824;4.682;2023-03-07T04:50:51;13.70;53.50
41116;DHT22;26861;51.824;4.682;2023-03-07T04:53:20;13.80;53.60
41116;DHT22;26861;51.824;4.682;2023-03-07T04:55:47;13.70;53.40
41116;DHT22;26861;51.824;4.682;2023-03-07T04:58:13;13.70;53.50
41116;DHT22;26861;51.824;4.682;2023-03-07T05:00:44;13.80;53.60
41116;DHT22;26861;51.824;4.682;2023-03-07T05:03:11;13.80;53.60
41116;DHT22;26861;51.824;4.682;2023-03-07T05:05:38;13.80;53.60
41116;DHT22;26861;51.824;4.682;2023-03-07T05:08:05;13.80;53.60
41116;DHT22;26861;51.824;4.682;2023-03-07T05:10:31;13.80;53.60
41116;DHT22;26861;51.824;4.682;2023-03-07T05:12:57;13.80;53.70
41116;DHT22;26861;51.824;4.682;2023-03-07T05:15:22;13.80;53.60
41116;DHT22;26861;51.824;4.682;2023-03-07T05:17:48;13.80;54.30
41116;DHT22;26861;51.824;4.682;2023-03-07T05:20:13;13.80;53.70
41116;DHT22;26861;51.824;4.682;2023-03-07T05:22:39;13.80;53.80
41116;DHT22;26861;51.824;4.682;2023-03-07T05:25:05;13.70;53.80
41116;DHT22;26861;51.824;4.682;2023-03-07T05:27:31;13.80;54.00
41116;DHT22;26861;51.824;4.682;2023-03-07T05:29:58;13.70;53.90
41116;DHT22;26861;51.824;4.682;2023-03-07T05:32:23;13.80;53.90
41116;DHT22;26861;51.824;4.682;2023-03-07T05:34:49;13.80;54.00
41116;DHT22;26861;51.824;4.682;2023-03-07T05:37:15;13.70;54.10
41116;DHT22;26861;51.824;4.682;2023-03-07T05:39:41;13.80;54.10
41116;DHT22;26861;51.824;4.682;2023-03-07T05:42:06;13.80;54.10
41116;DHT22;26861;51.824;4.682;2023-03-07T05:44:32;13.80;54.10
41116;DHT22;26861;51.824;4.682;2023-03-07T05:46:58;13.70;54.10
41116;DHT22;26861;51.824;4.682;2023-03-07T05:49:24;13.80;54.30
41116;DHT22;26861;51.824;4.682;2023-03-07T05:51:50;13.80;54.20
41116;DHT22;26861;51.824;4.682;2023-03-07T05:54:16;13.70;54.20
41116;DHT22;26861;51.824;4.682;2023-03-07T05:56:43;13.80;54.30
41116;DHT22;26861;51.824;4.682;2023-03-07T05:59:09;13.80;54.20
41116;DHT22;26861;51.824;4.682;2023-03-07T06:01:40;13.80;54.20
41116;DHT22;26861;51.824;4.682;2023-03-07T06:04:07;13.80;54.30
41116;DHT22;26861;51.824;4.682;2023-03-07T06:06:34;13.70;54.30
41116;DHT22;26861;51.824;4.682;2023-03-07T06:09:00;13.70;54.20
41116;DHT22;26861;51.824;4.682;2023-03-07T06:11:26;13.70;54.40
41116;DHT22;26861;51.824;4.682;2023-03-07T06:13:52;13.70;54.20
41116;DHT22;26861;51.824;4.682;2023-03-07T06:16:21;13.70;54.30
41116;DHT22;26861;51.824;4.682;2023-03-07T06:18:47;13.70;54.30
41116;DHT22;26861;51.824;4.682;2023-03-07T06:21:15;13.70;54.30
41116;DHT22;26861;51.824;4.682;2023-03-07T06:23:42;13.70;54.30
41116;DHT22;26861;51.824;4.682;2023-03-07T06:26:08;13.70;54.20
41116;DHT22;26861;51.824;4.682;2023-03-07T06:28:35;13.70;54.30
41116;DHT22;26861;51.824;4.682;2023-03-07T06:31:07;13.70;54.40
41116;DHT22;26861;51.824;4.682;2023-03-07T06:33:34;13.70;54.30
41116;DHT22;26861;51.824;4.682;2023-03-07T06:36:04;13.70;54.40
41116;DHT22;26861;51.824;4.682;2023-03-07T06:38:31;13.70;54.30
41116;DHT22;26861;51.824;4.682;2023-03-07T06:40:57;13.70;54.20
41116;DHT22;26861;51.824;4.682;2023-03-07T06:43:23;13.70;54.90
41116;DHT22;26861;51.824;4.682;2023-03-07T06:45:49;13.70;54.20
41116;DHT22;26861;51.824;4.682;2023-03-07T06:48:15;13.20;54.10
41116;DHT22;26861;51.824;4.682;2023-03-07T06:50:43;13.70;54.20
41116;DHT22;26861;51.824;4.682;2023-03-07T06:53:09;13.70;54.30
41116;DHT22;26861;51.824;4.682;2023-03-07T06:55:35;13.70;54.20
41116;DHT22;26861;51.824;4.682;2023-03-07T06:58:01;13.70;54.30
41116;DHT22;26861;51.824;4.682;2023-03-07T07:00:27;13.70;54.30
41116;DHT22;26861;51.824;4.682;2023-03-07T07:02:53;13.70;54.40
41116;DHT22;26861;51.824;4.682;2023-03-07T07:05:19;13.70;54.40
41116;DHT22;26861;51.824;4.682;2023-03-07T07:07:46;13.70;54.50
41116;DHT22;26861;51.824;4.682;2023-03-07T07:10:12;13.70;54.40
41116;DHT22;26861;51.824;4.682;2023-03-07T07:12:37;13.70;54.40
41116;DHT22;26861;51.824;4.682;2023-03-07T07:15:04;13.70;54.50
41116;DHT22;26861;51.824;4.682;2023-03-07T07:17:33;13.70;54.50
41116;DHT22;26861;51.824;4.682;2023-03-07T07:20:04;13.80;54.50
41116;DHT22;26861;51.824;4.682;2023-03-07T07:22:31;13.70;54.40
41116;DHT22;26861;51.824;4.682;2023-03-07T07:24:57;13.70;54.50
41116;DHT22;26861;51.824;4.682;2023-03-07T07:27:23;13.70;54.50
41116;DHT22;26861;51.824;4.682;2023-03-07T07:29:50;13.70;54.50
41116;DHT22;26861;51.824;4.682;2023-03-07T07:32:16;13.70;54.40
41116;DHT22;26861;51.824;4.682;2023-03-07T07:34:42;13.70;54.50
41116;DHT22;26861;51.824;4.682;2023-03-07T07:37:09;13.80;54.50
41116;DHT22;26861;51.824;4.682;2023-03-07T07:39:34;13.80;54.50
41116;DHT22;26861;51.824;4.682;2023-03-07T07:42:00;13.80;54.50
41116;DHT22;26861;51.824;4.682;2023-03-07T07:44:29;13.80;54.50
41116;DHT22;26861;51.824;4.682;2023-03-07T07:46:55;13.70;54.50
41116;DHT22;26861;51.824;4.682;2023-03-07T07:49:21;13.70;54.50
41116;DHT22;26861;51.824;4.682;2023-03-07T07:51:46;13.80;54.60
41116;DHT22;26861;51.824;4.682;2023-03-07T07:54:12;13.80;54.60
41116;DHT22;26861;51.824;4.682;2023-03-07T07:56:38;13.80;54.70
41116;DHT22;26861;51.824;4.682;2023-03-07T07:59:03;13.80;54.60
41116;DHT22;26861;51.824;4.682;2023-03-07T08:01:29;13.80;63.70
41116;DHT22;26861;51.824;4.682;2023-03-07T08:03:54;13.80;54.70
41116;DHT22;26861;51.824;4.682;2023-03-07T08:06:22;13.80;54.60
41116;DHT22;26861;51.824;4.682;2023-03-07T08:08:48;13.80;54.60
41116;DHT22;26861;51.824;4.682;2023-03-07T08:11:15;13.80;54.50
41116;DHT22;26861;51.824;4.682;2023-03-07T08:13:41;13.80;54.40
41116;DHT22;26861;51.824;4.682;2023-03-07T08:16:10;13.80;54.50
41116;DHT22;26861;51.824;4.682;2023-03-07T08:18:36;13.80;54.40
41116;DHT22;26861;51.824;4.682;2023-03-07T08:21:02;13.80;54.40
41116;DHT22;26861;51.824;4.682;2023-03-07T08:23:27;13.80;54.40
41116;DHT22;26861;51.824;4.682;2023-03-07T08:25:53;13.90;54.40
41116;DHT22;26861;51.824;4.682;2023-03-07T08:28:18;13.80;54.30
41116;DHT22;26861;51.824;4.682;2023-03-07T08:30:44;13.90;54.40
41116;DHT22;26861;51.824;4.682;2023-03-07T08:33:10;13.90;54.40
41116;DHT22;26861;51.824;4.682;2023-03-07T08:35:36;13.90;55.50
41116;DHT22;26861;51.824;4.682;2023-03-07T08:38:04;13.90;54.30
41116;DHT22;26861;51.824;4.682;2023-03-07T08:40:30;13.90;54.40
41116;DHT22;26861;51.824;4.682;2023-03-07T08:42:59;13.90;54.30
41116;DHT22;26861;51.824;4.682;2023-03-07T08:45:25;13.90;54.40
41116;DHT22;26861;51.824;4.682;2023-03-07T08:47:53;13.90;55.00
41116;DHT22;26861;51.824;4.682;2023-03-07T08:50:28;13.90;55.00
41116;DHT22;26861;51.824;4.682;2023-03-07T08:52:54;13.90;54.90
41116;DHT22;26861;51.824;4.682;2023-03-07T08:55:22;13.90;54.20
41116;DHT22;26861;51.824;4.682;2023-03-07T08:57:48;13.90;54.30
41116;DHT22;26861;51.824;4.682;2023-03-07T09:00:14;13.90;54.40
41116;DHT22;26861;51.824;4.682;2023-03-07T09:02:41;13.90;54.30
41116;DHT22;26861;51.824;4.682;2023-03-07T09:05:07;13.90;54.30
41116;DHT22;26861;51.824;4.682;2023-03-07T09:07:33;13.90;54.30
41116;DHT22;26861;51.824;4.682;2023-03-07T09:09:59;13.90;54.50
41116;DHT22;26861;51.824;4.682;2023-03-07T09:12:25;13.90;54.60
41116;DHT22;26861;51.824;4.682;2023-03-07T09:14:54;13.90;54.50
41116;DHT22;26861;51.824;4.682;2023-03-07T09:17:21;13.90;54.50
41116;DHT22;26861;51.824;4.682;2023-03-07T09:19:47;13.90;54.60
41116;DHT22;26861;51.824;4.682;2023-03-07T09:22:14;14.00;54.50
41116;DHT22;26861;51.824;4.682;2023-03-07T09:24:40;14.70;54.90
41116;DHT22;26861;51.824;4.682;2023-03-07T09:27:06;14.00;54.60
41116;DHT22;26861;51.824;4.682;2023-03-07T09:29:32;14.00;54.60
41116;DHT22;26861;51.824;4.682;2023-03-07T09:34:24;14.00;54.00
41116;DHT22;26861;51.824;4.682;2023-03-07T09:36:50;14.00;54.50
41116;DHT22;26861;51.824;4.682;2023-03-07T09:39:17;14.00;54.40
41116;DHT22;26861;51.824;4.682;2023-03-07T09:42:03;14.00;54.40
41116;DHT22;26861;51.824;4.682;2023-03-07T09:47:33;14.00;54.50
41116;DHT22;26861;51.824;4.682;2023-03-07T09:50:15;14.10;54.60
41116;DHT22;26861;51.824;4.682;2023-03-07T09:52:42;14.10;54.00
41116;DHT22;26861;51.824;4.682;2023-03-07T09:55:14;14.00;54.50
41116;DHT22;26861;51.824;4.682;2023-03-07T09:57:49;14.10;54.60
41116;DHT22;26861;51.824;4.682;2023-03-07T10:00:24;14.10;54.50
41116;DHT22;26861;51.824;4.682;2023-03-07T10:02:56;14.10;54.50
41116;DHT22;26861;51.824;4.682;2023-03-07T10:05:36;14.10;54.50
41116;DHT22;26861;51.824;4.682;2023-03-07T10:08:04;14.10;54.60
41116;DHT22;26861;51.824;4.682;2023-03-07T10:10:37;14.30;54.60
41116;DHT22;26861;51.824;4.682;2023-03-07T10:15:46;14.10;54.50
41116;DHT22;26861;51.824;4.682;2023-03-07T10:20:52;14.20;54.50
41116;DHT22;26861;51.824;4.682;2023-03-07T10:28:47;14.20;54.40
41116;DHT22;26861;51.824;4.682;2023-03-07T10:31:32;14.20;54.50
41116;DHT22;26861;51.824;4.682;2023-03-07T10:34:14;14.20;54.40
41116;DHT22;26861;51.824;4.682;2023-03-07T10:36:44;14.20;54.30
41116;DHT22;26861;51.824;4.682;2023-03-07T10:41:43;14.30;54.50
41116;DHT22;26861;51.824;4.682;2023-03-07T10:44:14;14.20;54.40
41116;DHT22;26861;51.824;4.682;2023-03-07T10:46:40;14.20;54.30
41116;DHT22;26861;51.824;4.682;2023-03-07T10:49:13;14.30;54.40
41116;DHT22;26861;51.824;4.682;2023-03-07T10:51:49;14.30;54.40
41116;DHT22;26861;51.824;4.682;2023-03-07T10:54:20;14.30;54.30
41116;DHT22;26861;51.824;4.682;2023-03-07T10:57:16;14.30;54.30
41116;DHT22;26861;51.824;4.682;2023-03-07T10:59:45;14.20;54.20
41116;DHT22;26861;51.824;4.682;2023-03-07T11:04:51;14.30;54.30
41116;DHT22;26861;51.824;4.682;2023-03-07T11:07:34;14.30;54.40
41116;DHT22;26861;51.824;4.682;2023-03-07T11:12:54;14.30;54.40
41116;DHT22;26861;51.824;4.682;2023-03-07T11:15:22;14.30;54.50
41116;DHT22;26861;51.824;4.682;2023-03-07T11:17:50;14.30;54.50
41116;DHT22;26861;51.824;4.682;2023-03-07T11:20:46;14.30;54.50
41116;DHT22;26861;51.824;4.682;2023-03-07T11:23:19;14.30;54.40
41116;DHT22;26861;51.824;4.682;2023-03-07T11:25:48;14.30;54.40
41116;DHT22;26861;51.824;4.682;2023-03-07T11:28:30;14.30;54.30
41116;DHT22;26861;51.824;4.682;2023-03-07T11:31:00;14.30;54.30
41116;DHT22;26861;51.824;4.682;2023-03-07T11:36:15;14.30;54.20
41116;DHT22;26861;51.824;4.682;2023-03-07T11:41:15;14.40;54.20
41116;DHT22;26861;51.824;4.682;2023-03-07T12:20:14;14.50;54.30
41116;DHT22;26861;51.824;4.682;2023-03-07T12:23:06;14.50;54.30
41116;DHT22;26861;51.824;4.682;2023-03-07T12:25:37;14.50;54.30
41116;DHT22;26861;51.824;4.682;2023-03-07T12:28:41;14.50;54.30
41116;DHT22;26861;51.824;4.682;2023-03-07T12:31:25;14.50;54.30
41116;DHT22;26861;51.824;4.682;2023-03-07T12:34:05;14.50;54.20
41116;DHT22;26861;51.824;4.682;2023-03-07T12:36:47;14.50;54.20
41116;DHT22;26861;51.824;4.682;2023-03-07T12:39:27;14.50;54.30
41116;DHT22;26861;51.824;4.682;2023-03-07T12:44:48;14.60;54.30
41116;DHT22;26861;51.824;4.682;2023-03-07T12:58:20;14.50;54.30
41116;DHT22;26861;51.824;4.682;2023-03-07T13:00:59;14.50;54.20
41116;DHT22;26861;51.824;4.682;2023-03-07T13:06:23;14.60;54.30
41116;DHT22;26861;51.824;4.682;2023-03-07T13:08:53;14.60;54.30
41116;DHT22;26861;51.824;4.682;2023-03-07T13:11:22;14.60;54.30
41116;DHT22;26861;51.824;4.682;2023-03-07T13:14:02;14.60;54.30
41116;DHT22;26861;51.824;4.682;2023-03-07T13:16:40;14.60;54.30
41116;DHT22;26861;51.824;4.682;2023-03-07T13:24:43;14.80;54.30
41116;DHT22;26861;51.824;4.682;2023-03-07T13:27:24;14.60;54.30
41116;DHT22;26861;51.824;4.682;2023-03-07T13:46:02;14.60;54.30
41116;DHT22;26861;51.824;4.682;2023-03-07T13:53:45;14.70;54.30
41116;DHT22;26861;51.824;4.682;2023-03-07T14:01:22;14.90;63.00
41116;DHT22;26861;51.824;4.682;2023-03-07T14:03:53;14.70;54.30
41116;DHT22;26861;51.824;4.682;2023-03-07T14:06:24;14.70;54.90
41116;DHT22;26861;51.824;4.682;2023-03-07T14:08:53;14.70;54.20
41116;DHT22;26861;51.824;4.682;2023-03-07T14:11:24;14.70;54.30
41116;DHT22;26861;51.824;4.682;2023-03-07T14:15:00;14.70;54.20
41116;DHT22;26861;51.824;4.682;2023-03-07T14:22:38;14.70;54.30
41116;DHT22;26861;51.824;4.682;2023-03-07T14:25:20;14.70;54.70
41116;DHT22;26861;51.824;4.682;2023-03-07T14:27:56;14.70;54.30
41116;DHT22;26861;51.824;4.682;2023-03-07T14:30:26;14.70;54.10
41116;DHT22;26861;51.824;4.682;2023-03-07T14:32:52;14.70;54.10
41116;DHT22;26861;51.824;4.682;2023-03-07T14:35:36;14.70;54.10
41116;DHT22;26861;51.824;4.682;2023-03-07T14:38:15;14.70;54.20
41116;DHT22;26861;51.824;4.682;2023-03-07T14:40:54;14.70;54.20
41116;DHT22;26861;51.824;4.682;2023-03-07T14:51:54;14.70;54.10
41116;DHT22;26861;51.824;4.682;2023-03-07T14:54:22;14.70;54.20
41116;DHT22;26861;51.824;4.682;2023-03-07T14:56:53;14.70;54.20
41116;DHT22;26861;51.824;4.682;2023-03-07T14:59:20;14.70;54.20
41116;DHT22;26861;51.824;4.682;2023-03-07T15:01:47;14.70;54.10
41116;DHT22;26861;51.824;4.682;2023-03-07T15:06:52;14.70;54.10
41116;DHT22;26861;51.824;4.682;2023-03-07T15:09:19;14.70;54.10
41116;DHT22;26861;51.824;4.682;2023-03-07T15:14:21;14.70;54.10
41116;DHT22;26861;51.824;4.682;2023-03-07T15:16:54;14.70;54.10
41116;DHT22;26861;51.824;4.682;2023-03-07T15:21:59;14.70;54.10
41116;DHT22;26861;51.824;4.682;2023-03-07T15:26:55;14.70;54.00
41116;DHT22;26861;51.824;4.682;2023-03-07T15:29:23;14.70;54.00
41116;DHT22;26861;51.824;4.682;2023-03-07T15:31:55;14.70;54.10
41116;DHT22;26861;51.824;4.682;2023-03-07T15:34:26;14.70;54.40
41116;DHT22;26861;51.824;4.682;2023-03-07T15:36:52;14.70;54.10
41116;DHT22;26861;51.824;4.682;2023-03-07T15:39:30;14.70;54.10
41116;DHT22;26861;51.824;4.682;2023-03-07T15:42:05;14.70;54.00
41116;DHT22;26861;51.824;4.682;2023-03-07T15:44:33;14.70;54.00
41116;DHT22;26861;51.824;4.682;2023-03-07T15:47:12;14.70;54.00
41116;DHT22;26861;51.824;4.682;2023-03-07T15:49:50;14.70;54.70
41116;DHT22;26861;51.824;4.682;2023-03-07T15:55:00;14.70;53.50
41116;DHT22;26861;51.824;4.682;2023-03-07T15:57:33;14.60;54.10
41116;DHT22;26861;51.824;4.682;2023-03-07T16:00:05;14.60;54.00
41116;DHT22;26861;51.824;4.682;2023-03-07T16:02:45;14.70;53.90
41116;DHT22;26861;51.824;4.682;2023-03-07T16:07:46;14.60;53.80
41116;DHT22;26861;51.824;4.682;2023-03-07T16:10:12;14.60;53.80
41116;DHT22;26861;51.824;4.682;2023-03-07T16:12:38;14.60;53.80
41116;DHT22;26861;51.824;4.682;2023-03-07T16:15:23;14.60;53.80
41116;DHT22;26861;51.824;4.682;2023-03-07T16:17:51;14.60;53.70
41116;DHT22;26861;51.824;4.682;2023-03-07T16:20:24;14.60;53.70
41116;DHT22;26861;51.824;4.682;2023-03-07T16:22:50;14.60;53.70
41116;DHT22;26861;51.824;4.682;2023-03-07T16:25:17;14.60;53.70
41116;DHT22;26861;51.824;4.682;2023-03-07T16:27:56;14.60;53.60
41116;DHT22;26861;51.824;4.682;2023-03-07T16:30:25;14.60;53.50
41116;DHT22;26861;51.824;4.682;2023-03-07T16:32:52;14.60;53.40
41116;DHT22;26861;51.824;4.682;2023-03-07T16:35:22;14.60;53.40
41116;DHT22;26861;51.824;4.682;2023-03-07T16:37:49;14.60;53.40
41116;DHT22;26861;51.824;4.682;2023-03-07T16:40:15;14.60;53.40
41116;DHT22;26861;51.824;4.682;2023-03-07T16:42:43;14.60;53.50
41116;DHT22;26861;51.824;4.682;2023-03-07T16:45:26;14.60;53.50
41116;DHT22;26861;51.824;4.682;2023-03-07T16:47:55;14.50;53.60
41116;DHT22;26861;51.824;4.682;2023-03-07T16:50:25;14.60;53.50
41116;DHT22;26861;51.824;4.682;2023-03-07T16:52:54;14.60;53.40
41116;DHT22;26861;51.824;4.682;2023-03-07T16:55:21;14.60;53.40
41116;DHT22;26861;51.824;4.682;2023-03-07T16:57:51;14.50;53.30
41116;DHT22;26861;51.824;4.682;2023-03-07T17:00:21;14.50;53.30
41116;DHT22;26861;51.824;4.682;2023-03-07T17:02:50;14.50;53.20
41116;DHT22;26861;51.824;4.682;2023-03-07T17:05:19;14.50;53.20
41116;DHT22;26861;51.824;4.682;2023-03-07T17:07:46;14.50;53.20
41116;DHT22;26861;51.824;4.682;2023-03-07T17:10:12;14.40;53.10
41116;DHT22;26861;51.824;4.682;2023-03-07T17:12:40;14.50;53.10
41116;DHT22;26861;51.824;4.682;2023-03-07T17:15:13;14.50;53.10
41116;DHT22;26861;51.824;4.682;2023-03-07T17:17:40;14.40;53.00
41116;DHT22;26861;51.824;4.682;2023-03-07T17:20:10;14.40;53.00
41116;DHT22;26861;51.824;4.682;2023-03-07T17:22:36;14.40;53.00
41116;DHT22;26861;51.824;4.682;2023-03-07T17:25:02;14.40;53.00
41116;DHT22;26861;51.824;4.682;2023-03-07T17:27:30;14.40;53.00
41116;DHT22;26861;51.824;4.682;2023-03-07T17:29:57;14.40;53.00
41116;DHT22;26861;51.824;4.682;2023-03-07T17:32:23;14.40;52.90
41116;DHT22;26861;51.824;4.682;2023-03-07T17:34:49;14.40;52.90
41116;DHT22;26861;51.824;4.682;2023-03-07T17:37:15;14.40;52.90
41116;DHT22;26861;51.824;4.682;2023-03-07T17:39:41;14.30;52.90
41116;DHT22;26861;51.824;4.682;2023-03-07T17:42:08;14.30;52.80
41116;DHT22;26861;51.824;4.682;2023-03-07T17:44:34;14.30;52.80
41116;DHT22;26861;51.824;4.682;2023-03-07T17:47:00;14.30;52.80
41116;DHT22;26861;51.824;4.682;2023-03-07T17:49:31;14.30;52.80
41116;DHT22;26861;51.824;4.682;2023-03-07T17:51:57;14.30;53.30
41116;DHT22;26861;51.824;4.682;2023-03-07T17:54:23;14.30;52.60
41116;DHT22;26861;51.824;4.682;2023-03-07T17:56:49;14.30;52.60
41116;DHT22;26861;51.824;4.682;2023-03-07T17:59:15;14.30;52.60
41116;DHT22;26861;51.824;4.682;2023-03-07T18:01:40;14.20;53.20
41116;DHT22;26861;51.824;4.682;2023-03-07T18:04:07;14.20;52.60
41116;DHT22;26861;51.824;4.682;2023-03-07T18:06:33;14.20;52.60
41116;DHT22;26861;51.824;4.682;2023-03-07T18:09:00;14.20;52.50
41116;DHT22;26861;51.824;4.682;2023-03-07T18:11:26;14.20;52.50